Time;durP1;ratioP1;P1;durP2;ratioP2;P2;SDS_P1;SDS_P2;PMS_P1;PMS_P2;Temp;Humidity;BMP_temperature;BMP_pressure;BME280_temperature;BME280_humidity;BME280_pressure;Samples;Min_cycle;Max_cycle;Signal;HPM_P1;HPM_P2
2022/07/17 00:02:20;;;;;;;1.00;0.53;;;;;;;28.99;nan;95419.19;5009097;28;20193;-64
2022/07/17 00:04:47;;;;;;;0.27;0.27;;;;;;;28.59;nan;95420.78;5008982;28;20668;-66
2022/07/17 00:07:14;;;;;;;0.30;0.30;;;;;;;28.78;nan;95413.44;5009146;28;20213;-63
2022/07/17 00:09:41;;;;;;;0.33;0.33;;;;;;;29.05;nan;95419.69;5008959;28;20682;-65
2022/07/17 00:12:08;;;;;;;0.63;0.63;;;;;;;28.93;nan;95420.66;5009066;28;20202;-66
2022/07/17 00:14:35;;;;;;;0.20;0.20;;;;;;;29.06;nan;95428.56;5009017;28;20202;-65
2022/07/17 00:17:02;;;;;;;0.40;0.40;;;;;;;29.02;nan;95427.72;5008913;28;20715;-64
2022/07/17 00:19:29;;;;;;;0.30;0.30;;;;;;;28.77;nan;95433.47;5009132;28;20686;-66
2022/07/17 00:21:55;;;;;;;0.40;0.40;;;;;;;28.90;nan;95432.13;5008981;28;20592;-64
2022/07/17 00:24:22;;;;;;;0.30;0.30;;;;;;;28.92;nan;95435.25;5008984;28;20583;-68
2022/07/17 00:26:50;;;;;;;0.30;0.30;;;;;;;28.49;nan;95432.88;5008889;28;20222;-65
2022/07/17 00:29:19;;;;;;;0.97;0.70;;;;;;;29.02;nan;95428.50;5009059;28;20635;-67
2022/07/17 00:31:46;;;;;;;0.20;0.20;;;;;;;28.71;nan;95434.88;5008911;28;20597;-65
2022/07/17 00:34:15;;;;;;;0.67;0.60;;;;;;;28.68;nan;95435.63;5008874;28;20193;-67
2022/07/17 00:36:42;;;;;;;0.67;0.57;;;;;;;28.26;nan;95429.34;5008642;28;20194;-68
2022/07/17 00:39:09;;;;;;;0.60;0.60;;;;;;;27.68;nan;95430.38;5008981;28;20212;-66
2022/07/17 00:41:36;;;;;;;0.23;0.23;;;;;;;28.30;nan;95441.00;5008764;28;20196;-66
2022/07/17 00:44:05;;;;;;;0.50;0.50;;;;;;;28.19;nan;95437.28;5008879;28;20205;-67
2022/07/17 00:46:32;;;;;;;0.40;0.40;;;;;;;28.32;nan;95444.09;5008783;28;20201;-67
2022/07/17 00:49:00;;;;;;;0.40;0.40;;;;;;;28.00;nan;95448.03;5009239;28;20221;-65
2022/07/17 00:51:27;;;;;;;1.67;0.70;;;;;;;28.57;nan;95445.41;5008727;28;20216;-65
2022/07/17 00:53:57;;;;;;;0.33;0.33;;;;;;;28.37;nan;95445.72;5008515;28;20212;-66
2022/07/17 00:56:26;;;;;;;0.43;0.43;;;;;;;28.51;nan;95440.63;5007365;28;20210;-64
2022/07/17 00:58:54;;;;;;;1.90;1.13;;;;;;;28.49;nan;95445.59;5008870;28;20274;-65
2022/07/17 01:01:20;;;;;;;0.30;0.30;;;;;;;28.30;nan;95451.78;5008639;28;20206;-65
2022/07/17 01:03:48;;;;;;;0.30;0.30;;;;;;;28.42;nan;95448.13;5007368;28;20688;-64
2022/07/17 01:06:14;;;;;;;0.30;0.30;;;;;;;28.55;nan;95453.06;5009068;28;20202;-64
2022/07/17 01:08:41;;;;;;;0.40;0.40;;;;;;;28.43;nan;95453.19;5008935;28;20194;-64
2022/07/17 01:11:08;;;;;;;0.23;0.23;;;;;;;28.69;nan;95461.44;5008638;28;20194;-65
2022/07/17 01:13:35;;;;;;;0.23;0.23;;;;;;;28.89;nan;95464.88;5008418;28;20214;-65
2022/07/17 01:16:02;;;;;;;0.57;0.47;;;;;;;28.64;nan;95461.72;5008415;28;20198;-64
2022/07/17 01:18:30;;;;;;;1.20;1.10;;;;;;;28.91;nan;95455.31;5010514;28;20222;-65
2022/07/17 01:21:06;;;;;;;0.20;0.20;;;;;;;28.34;nan;95449.91;5012260;28;20194;-66
2022/07/17 01:23:33;;;;;;;0.20;0.20;;;;;;;28.76;nan;95452.69;5012483;28;20208;-64
2022/07/17 01:26:00;;;;;;;0.30;0.30;;;;;;;28.68;nan;95457.19;5012767;28;21918;-65
2022/07/17 01:28:27;;;;;;;0.80;0.80;;;;;;;28.82;nan;95454.75;5011683;28;20212;-65
2022/07/17 01:30:54;;;;;;;1.53;0.70;;;;;;;28.61;nan;95446.25;5011860;28;20204;-65
2022/07/17 01:33:22;;;;;;;0.60;0.60;;;;;;;28.30;nan;95451.78;5011985;28;20264;-66
2022/07/17 01:35:50;;;;;;;0.57;0.30;;;;;;;28.00;nan;95456.13;5012515;28;20194;-65
2022/07/17 01:38:17;;;;;;;0.57;0.53;;;;;;;28.26;nan;95448.22;5011969;28;20719;-64
2022/07/17 01:40:44;;;;;;;1.30;0.70;;;;;;;28.16;nan;95451.47;5011756;28;20866;-65
2022/07/17 01:43:11;;;;;;;0.30;0.30;;;;;;;27.77;nan;95455.97;5011784;28;20198;-65
2022/07/17 01:45:39;;;;;;;0.30;0.30;;;;;;;27.40;nan;95460.09;5011457;28;20198;-67
2022/07/17 01:48:06;;;;;;;0.63;0.43;;;;;;;27.39;nan;95471.22;5012128;28;20264;-65
2022/07/17 01:50:33;;;;;;;0.77;0.60;;;;;;;27.41;nan;95463.56;5011699;28;20204;-65
2022/07/17 01:53:00;;;;;;;0.10;0.10;;;;;;;28.11;nan;95453.66;5011792;28;20182;-65
2022/07/17 01:55:27;;;;;;;0.33;0.33;;;;;;;28.33;nan;95451.06;5011418;28;20193;-64
2022/07/17 01:57:54;;;;;;;0.33;0.33;;;;;;;28.45;nan;95452.84;5011469;28;20371;-65
2022/07/17 02:00:24;;;;;;;0.30;0.30;;;;;;;28.42;nan;95448.13;5010061;28;20233;-66
2022/07/17 02:02:51;;;;;;;0.40;0.40;;;;;;;28.88;nan;95461.41;5011814;28;20198;-64
2022/07/17 02:05:18;;;;;;;0.47;0.47;;;;;;;28.66;nan;95458.66;5011253;28;20194;-65
2022/07/17 02:07:45;;;;;;;0.77;0.50;;;;;;;28.65;nan;95462.50;5011123;28;20576;-65
2022/07/17 02:10:13;;;;;;;0.50;0.30;;;;;;;28.73;nan;95465.00;5011103;28;20587;-65
2022/07/17 02:12:44;;;;;;;0.77;0.73;;;;;;;28.16;nan;95456.84;5011443;28;20238;-69
2022/07/17 02:15:12;;;;;;;0.30;0.30;;;;;;;28.22;nan;95466.22;5010808;28;20285;-65
2022/07/17 02:17:40;;;;;;;0.30;0.30;;;;;;;28.37;nan;95462.69;5011207;28;20266;-66
2022/07/17 02:20:11;;;;;;;0.53;0.40;;;;;;;28.06;nan;95468.19;5011418;28;20202;-67
2022/07/17 02:22:39;;;;;;;0.40;0.40;;;;;;;27.75;nan;95470.94;5011263;28;20208;-64
2022/07/17 02:25:08;;;;;;;1.27;0.57;;;;;;;27.40;nan;95462.78;5011072;28;20695;-65
2022/07/17 02:27:35;;;;;;;0.10;0.10;;;;;;;27.10;nan;95474.31;5010759;28;20229;-65
2022/07/17 02:30:08;;;;;;;0.30;0.30;;;;;;;27.12;nan;95472.03;5010540;28;20205;-66
2022/07/17 02:32:35;;;;;;;0.30;0.30;;;;;;;27.18;nan;95466.06;5011124;28;20233;-64
2022/07/17 02:35:03;;;;;;;0.33;0.33;;;;;;;27.68;nan;95462.69;5010649;28;20259;-66
2022/07/17 02:37:30;;;;;;;0.33;0.33;;;;;;;27.92;nan;95462.44;5010470;28;20219;-64
2022/07/17 02:39:58;;;;;;;0.23;0.23;;;;;;;28.10;nan;95469.06;5010311;28;20734;-65
2022/07/17 02:42:28;;;;;;;3.60;0.60;;;;;;;28.24;nan;95469.34;5010209;28;20779;-64
2022/07/17 02:44:55;;;;;;;3.00;1.03;;;;;;;28.12;nan;95466.75;5010821;28;20197;-65
2022/07/17 02:47:27;;;;;;;0.30;0.30;;;;;;;27.98;nan;95474.56;5010555;28;20280;-64
2022/07/17 02:49:54;;;;;;;0.23;0.23;;;;;;;28.03;nan;95468.88;5009982;28;20265;-64
2022/07/17 02:52:21;;;;;;;0.30;0.30;;;;;;;28.19;nan;95472.34;5010377;28;20693;-64
2022/07/17 02:54:49;;;;;;;0.40;0.40;;;;;;;27.82;nan;95479.16;5010685;28;20198;-65
2022/07/17 02:57:16;;;;;;;0.73;0.70;;;;;;;27.94;nan;95482.56;5010521;28;20683;-65
2022/07/17 02:59:43;;;;;;;0.67;0.67;;;;;;;28.28;nan;95481.00;5010590;28;20283;-65
2022/07/17 03:02:10;;;;;;;0.70;0.70;;;;;;;28.30;nan;95483.34;5009733;28;20247;-65
2022/07/17 03:04:37;;;;;;;0.73;0.73;;;;;;;28.14;nan;95486.06;5010075;28;20669;-65
2022/07/17 03:07:04;;;;;;;0.43;0.43;;;;;;;28.01;nan;95487.31;5010154;28;20194;-65
2022/07/17 03:09:31;;;;;;;0.57;0.57;;;;;;;28.31;nan;95501.84;5010163;28;20578;-66
2022/07/17 03:11:58;;;;;;;0.47;0.37;;;;;;;28.47;nan;95482.91;5010116;28;20189;-66
2022/07/17 03:14:25;;;;;;;5.40;0.80;;;;;;;27.69;nan;95493.84;5009819;28;20368;-65
2022/07/17 03:16:53;;;;;;;0.30;0.30;;;;;;;27.84;nan;95498.44;5010085;28;20251;-65
2022/07/17 03:19:20;;;;;;;0.63;0.63;;;;;;;27.86;nan;95490.81;5009721;28;20257;-65
2022/07/17 03:21:47;;;;;;;0.80;0.80;;;;;;;27.99;nan;95505.75;5010123;28;20198;-64
2022/07/17 03:24:14;;;;;;;0.20;0.20;;;;;;;28.04;nan;95497.41;5009470;28;20281;-65
2022/07/17 03:26:40;;;;;;;0.57;0.57;;;;;;;28.30;nan;95494.91;5009581;28;20639;-64
2022/07/17 03:29:07;;;;;;;0.30;0.30;;;;;;;28.39;nan;95500.09;5009803;28;20211;-64
2022/07/17 03:31:34;;;;;;;0.47;0.47;;;;;;;28.19;nan;95499.28;5009506;28;20277;-64
2022/07/17 03:34:01;;;;;;;0.47;0.47;;;;;;;27.73;nan;95508.19;5010122;28;20614;-68
2022/07/17 03:36:28;;;;;;;0.40;0.40;;;;;;;27.86;nan;95506.97;5009782;28;20208;-66
2022/07/17 03:38:55;;;;;;;0.20;0.20;;;;;;;28.02;nan;95509.66;5009059;28;20213;-65
2022/07/17 03:41:22;;;;;;;0.27;0.27;;;;;;;28.19;nan;95512.75;5009023;28;20234;-66
2022/07/17 03:43:48;;;;;;;0.50;0.50;;;;;;;28.18;nan;95513.88;5009992;28;20200;-66
2022/07/17 03:46:15;;;;;;;0.30;0.30;;;;;;;28.10;nan;95522.16;5009703;28;20194;-64
2022/07/17 03:48:42;;;;;;;0.27;0.27;;;;;;;28.12;nan;95520.66;5009386;28;20186;-64
2022/07/17 03:51:09;;;;;;;0.23;0.23;;;;;;;27.98;nan;95523.84;5009499;28;20184;-65
2022/07/17 03:53:36;;;;;;;1.10;0.80;;;;;;;27.69;nan;95524.25;5009194;28;20695;-66
2022/07/17 03:56:04;;;;;;;0.87;0.87;;;;;;;27.83;nan;95521.91;5008843;28;20222;-65
2022/07/17 03:58:32;;;;;;;0.30;0.30;;;;;;;27.54;nan;95533.13;5009230;28;20210;-65
2022/07/17 04:00:59;;;;;;;1.40;0.77;;;;;;;27.87;nan;95538.16;5009420;28;20190;-66
2022/07/17 04:03:26;;;;;;;0.20;0.20;;;;;;;27.90;nan;95545.53;5009101;28;20197;-67
2022/07/17 04:05:53;;;;;;;0.30;0.30;;;;;;;27.68;nan;95543.47;5009595;28;20263;-65
2022/07/17 04:08:20;;;;;;;0.30;0.30;;;;;;;27.57;nan;95542.44;5009635;28;20236;-66
2022/07/17 04:10:47;;;;;;;0.30;0.30;;;;;;;28.13;nan;95549.19;5009003;28;20202;-65
2022/07/17 04:13:14;;;;;;;0.73;0.53;;;;;;;27.89;nan;95550.16;5009226;28;20189;-66
2022/07/17 04:15:55;;;;;;;0.20;0.20;;;;;;;27.47;nan;95554.47;5009230;28;20275;-65
2022/07/17 04:18:25;;;;;;;1.07;0.80;;;;;;;27.84;nan;95549.63;5009168;28;20313;-67
2022/07/17 04:20:53;;;;;;;0.20;0.20;;;;;;;26.88;nan;95538.28;5009384;28;20190;-65
2022/07/17 04:23:21;;;;;;;0.17;0.17;;;;;;;27.07;nan;95558.38;5007700;28;20204;-65
2022/07/17 04:25:48;;;;;;;0.57;0.57;;;;;;;27.06;nan;95554.13;5009202;28;20194;-66
2022/07/17 04:28:14;;;;;;;0.37;0.37;;;;;;;27.56;nan;95567.78;5007162;28;20274;-65
2022/07/17 04:30:41;;;;;;;0.50;0.50;;;;;;;27.82;nan;95557.28;5007455;28;20194;-66
2022/07/17 04:33:09;;;;;;;0.27;0.27;;;;;;;27.91;nan;95568.66;5008540;28;20697;-67
2022/07/17 04:35:36;;;;;;;0.80;0.80;;;;;;;28.17;nan;95563.53;5008901;28;20200;-67
2022/07/17 04:38:04;;;;;;;1.77;1.67;;;;;;;28.57;nan;95566.75;5008713;28;20245;-67
2022/07/17 04:40:33;;;;;;;1.37;1.27;;;;;;;28.58;nan;95568.31;5009506;28;20202;-66
2022/07/17 04:43:00;;;;;;;0.50;0.50;;;;;;;28.82;nan;95570.75;5009027;28;20205;-65
2022/07/17 04:45:27;;;;;;;0.30;0.30;;;;;;;28.61;nan;95570.28;5009009;28;20683;-67
2022/07/17 04:47:54;;;;;;;1.20;0.87;;;;;;;28.85;nan;95570.03;5009521;28;20277;-64
2022/07/17 04:50:22;;;;;;;1.00;1.00;;;;;;;28.51;nan;95581.63;5008751;28;20198;-66
2022/07/17 04:52:49;;;;;;;8.10;3.77;;;;;;;28.88;nan;95582.03;5008477;28;20198;-63
2022/07/17 04:55:16;;;;;;;0.57;0.57;;;;;;;28.65;nan;95573.06;5012650;28;20194;-65
2022/07/17 04:57:43;;;;;;;1.60;1.13;;;;;;;28.73;nan;95580.97;5012387;28;20217;-67
2022/07/17 05:00:12;;;;;;;0.20;0.20;;;;;;;29.15;nan;95582.97;5010798;28;20186;-66
2022/07/17 05:02:38;;;;;;;3.37;3.10;;;;;;;29.07;nan;95594.75;5012562;28;20202;-67
2022/07/17 05:05:06;;;;;;;1.77;1.40;;;;;;;28.94;nan;95594.88;5012516;28;20216;-66
2022/07/17 05:07:33;;;;;;;2.47;2.27;;;;;;;29.07;nan;95592.06;5012710;28;20189;-64
2022/07/17 05:10:00;;;;;;;0.93;0.53;;;;;;;29.26;nan;95600.16;5012756;28;20204;-67
2022/07/17 05:12:26;;;;;;;2.27;0.53;;;;;;;29.32;nan;95598.75;5013311;28;20301;-67
2022/07/17 05:14:53;;;;;;;0.40;0.40;;;;;;;28.88;nan;95607.13;5012937;28;20190;-67
2022/07/17 05:17:20;;;;;;;0.47;0.47;;;;;;;28.96;nan;95603.41;5012114;28;20621;-66
2022/07/17 05:19:47;;;;;;;0.60;0.60;;;;;;;29.23;nan;95600.88;5015530;28;20208;-68
2022/07/17 05:22:14;;;;;;;0.47;0.47;;;;;;;29.38;nan;95598.09;5012738;28;20209;-68
2022/07/17 05:24:41;;;;;;;0.40;0.40;;;;;;;29.07;nan;95581.25;5012410;28;20256;-66
2022/07/17 05:27:08;;;;;;;0.57;0.57;;;;;;;28.00;nan;95601.59;5016779;28;20257;-67
2022/07/17 05:29:36;;;;;;;0.10;0.10;;;;;;;28.66;nan;95602.41;5013188;28;20943;-67
2022/07/17 05:32:03;;;;;;;0.30;0.30;;;;;;;29.60;nan;95607.34;5020012;28;20224;-69
2022/07/17 05:34:30;;;;;;;0.50;0.50;;;;;;;29.76;nan;95605.38;5021075;28;20188;-70
2022/07/17 05:36:57;;;;;;;0.47;0.47;;;;;;;29.96;nan;95593.38;5017530;28;20204;-68
2022/07/17 05:39:24;;;;;;;0.63;0.60;;;;;;;29.82;nan;95601.22;5012584;28;20212;-70
2022/07/17 05:41:51;;;;;;;0.33;0.33;;;;;;;29.78;nan;95600.41;5018798;28;20197;-66
2022/07/17 05:44:18;;;;;;;0.20;0.20;;;;;;;29.33;nan;95601.09;5020558;28;20632;-68
2022/07/17 05:46:45;;;;;;;0.30;0.30;;;;;;;29.48;nan;95591.31;5015459;28;21017;-66
2022/07/17 05:49:12;;;;;;;0.50;0.50;;;;;;;29.83;nan;95591.97;5017759;28;20548;-66
2022/07/17 05:51:39;;;;;;;7.27;3.27;;;;;;;29.71;nan;95600.25;5020012;28;20209;-68
2022/07/17 05:54:05;;;;;;;5.53;3.93;;;;;;;29.88;nan;95610.59;5013907;28;20246;-70
2022/07/17 05:56:32;;;;;;;0.80;0.80;;;;;;;29.75;nan;95609.19;5012248;28;20190;-67
2022/07/17 05:58:59;;;;;;;0.40;0.40;;;;;;;29.76;nan;95608.84;5014915;28;20224;-69
2022/07/17 06:01:26;;;;;;;0.30;0.30;;;;;;;29.43;nan;95599.72;5017931;28;20604;-69
2022/07/17 06:03:53;;;;;;;1.13;0.90;;;;;;;29.63;nan;95604.75;5030310;28;20280;-68
2022/07/17 06:06:21;;;;;;;0.60;0.60;;;;;;;30.20;nan;95606.47;5030484;28;20201;-73
2022/07/17 06:08:48;;;;;;;0.57;0.53;;;;;;;29.99;nan;95611.53;5010781;28;20259;-70
2022/07/17 06:11:14;;;;;;;0.77;0.60;;;;;;;29.72;nan;95618.81;5041582;28;20306;-72
2022/07/17 06:13:42;;;;;;;0.70;0.70;;;;;;;29.81;nan;95611.25;5020732;28;20224;-63
2022/07/17 06:16:09;;;;;;;0.73;0.67;;;;;;;29.90;nan;95613.72;5027777;28;20197;-64
2022/07/17 06:18:36;;;;;;;0.27;0.27;;;;;;;29.55;nan;95610.34;5014094;28;20225;-65
2022/07/17 06:21:03;;;;;;;0.37;0.37;;;;;;;30.17;nan;95617.22;5009333;28;20769;-62
2022/07/17 06:23:30;;;;;;;2.43;0.80;;;;;;;29.57;nan;95610.78;5007980;28;20192;-63
2022/07/17 06:25:57;;;;;;;0.50;0.50;;;;;;;30.01;nan;95616.59;5008801;28;20201;-62
2022/07/17 06:28:24;;;;;;;0.93;0.77;;;;;;;29.82;nan;95617.41;5009463;28;20210;-63
2022/07/17 06:30:51;;;;;;;0.87;0.60;;;;;;;29.60;nan;95615.44;5009364;28;20287;-62
2022/07/17 06:33:18;;;;;;;0.50;0.50;;;;;;;29.88;nan;95621.41;5009840;28;20664;-62
2022/07/17 06:35:45;;;;;;;0.20;0.20;;;;;;;30.12;nan;95620.25;5029682;28;20204;-64
2022/07/17 06:38:12;;;;;;;0.20;0.20;;;;;;;29.49;nan;95614.50;5031539;28;20292;-63
2022/07/17 06:40:38;;;;;;;0.20;0.20;;;;;;;29.79;nan;95620.84;5017959;28;20292;-63
2022/07/17 06:43:06;;;;;;;1.07;1.03;;;;;;;29.32;nan;95598.75;5029743;28;20201;-65
2022/07/17 06:45:33;;;;;;;6.23;4.13;;;;;;;29.46;nan;95610.59;5043171;28;20205;-63
2022/07/17 06:48:01;;;;;;;2.27;2.07;;;;;;;29.69;nan;95614.13;5042855;28;20197;-63
2022/07/17 06:50:28;;;;;;;1.33;1.27;;;;;;;30.30;nan;95622.13;5011470;28;20209;-64
2022/07/17 06:52:55;;;;;;;1.33;0.87;;;;;;;30.03;nan;95606.97;5010055;28;20300;-63
2022/07/17 06:55:21;;;;;;;0.70;0.70;;;;;;;29.91;nan;95616.03;5026364;28;20588;-61
2022/07/17 06:57:48;;;;;;;0.40;0.40;;;;;;;28.75;nan;95619.16;5019512;28;20198;-64
2022/07/17 07:00:18;;;;;;;0.43;0.43;;;;;;;29.65;nan;95620.59;5043770;28;20205;-63
2022/07/17 07:02:45;;;;;;;0.53;0.53;;;;;;;29.32;nan;95615.72;5029980;28;20197;-63
2022/07/17 07:05:12;;;;;;;1.37;1.27;;;;;;;30.08;nan;95631.00;5015664;28;20684;-61
2022/07/17 07:07:39;;;;;;;0.37;0.37;;;;;;;30.12;nan;95626.44;5035224;28;20660;-62
2022/07/17 07:10:06;;;;;;;0.33;0.33;;;;;;;30.02;nan;95621.63;5025146;28;20177;-63
2022/07/17 07:12:33;;;;;;;0.23;0.23;;;;;;;30.46;nan;95630.84;5027763;28;20229;-63
2022/07/17 07:15:00;;;;;;;1.40;0.80;;;;;;;30.40;nan;95632.31;5008670;28;20206;-63
2022/07/17 07:17:27;;;;;;;0.20;0.20;;;;;;;30.74;nan;95633.97;5008780;28;20734;-62
2022/07/17 07:19:53;;;;;;;1.60;1.50;;;;;;;30.25;nan;95625.09;5008526;28;20616;-63
2022/07/17 07:22:20;;;;;;;0.97;0.80;;;;;;;30.15;nan;95625.69;5021345;28;20874;-69
2022/07/17 07:24:47;;;;;;;1.27;1.07;;;;;;;30.74;nan;95631.28;5021095;28;20835;-64
2022/07/17 07:27:14;;;;;;;0.40;0.40;;;;;;;30.82;nan;95641.06;5021339;28;20244;-65
2022/07/17 07:29:41;;;;;;;0.60;0.60;;;;;;;31.20;nan;95631.13;5033877;28;20188;-64
2022/07/17 07:32:08;;;;;;;0.40;0.40;;;;;;;30.64;nan;95637.31;5038768;28;20197;-64
2022/07/17 07:34:35;;;;;;;0.53;0.53;;;;;;;31.60;nan;95628.50;5012053;28;20232;-63
2022/07/17 07:37:02;;;;;;;0.40;0.40;;;;;;;31.16;nan;95631.06;5009461;28;20228;-64
2022/07/17 07:39:29;;;;;;;0.27;0.27;;;;;;;31.52;nan;95633.06;5009509;28;20286;-68
2022/07/17 07:41:56;;;;;;;0.40;0.40;;;;;;;31.29;nan;95634.31;5024233;28;20582;-62
2022/07/17 07:44:23;;;;;;;0.70;0.70;;;;;;;31.14;nan;95640.69;5049336;28;20196;-62
2022/07/17 07:46:57;;;;;;;0.40;0.40;;;;;;;31.09;nan;95625.56;5016150;28;20241;-65
2022/07/17 07:49:24;;;;;;;0.30;0.30;;;;;;;30.78;nan;95639.44;5029221;28;20197;-64
2022/07/17 07:51:51;;;;;;;0.43;0.43;;;;;;;31.25;nan;95634.28;5029577;28;20193;-63
2022/07/17 07:54:28;;;;;;;0.40;0.40;;;;;;;30.94;nan;95628.47;5029118;28;20197;-69
2022/07/17 07:56:55;;;;;;;2.10;1.50;;;;;;;31.24;nan;95631.94;5015230;28;20193;-69
2022/07/17 07:59:22;;;;;;;0.93;0.90;;;;;;;31.19;nan;95629.53;5023277;28;20221;-68
2022/07/17 08:01:48;;;;;;;0.80;0.80;;;;;;;31.16;nan;95620.25;5029147;28;20205;-64
2022/07/17 08:04:16;;;;;;;1.27;0.50;;;;;;;31.21;nan;95627.25;5015158;28;20662;-63
2022/07/17 08:06:43;;;;;;;0.43;0.43;;;;;;;32.00;nan;95625.81;5021643;28;20545;-67
2022/07/17 08:09:10;;;;;;;0.33;0.33;;;;;;;32.14;nan;95631.34;5007597;28;20197;-68
2022/07/17 08:11:37;;;;;;;0.40;0.33;;;;;;;31.69;nan;95634.41;5029104;28;20201;-64
2022/07/17 08:14:03;;;;;;;0.50;0.50;;;;;;;31.93;nan;95631.19;5041071;28;20201;-63
2022/07/17 08:16:38;;;;;;;0.80;0.73;;;;;;;31.70;nan;95627.81;5026179;28;20201;-67
2022/07/17 08:19:06;;;;;;;0.50;0.50;;;;;;;31.95;nan;95636.22;5030494;28;20217;-70
2022/07/17 08:21:33;;;;;;;0.57;0.53;;;;;;;31.88;nan;95634.97;5032768;28;20200;-69
2022/07/17 08:23:59;;;;;;;0.40;0.40;;;;;;;31.97;nan;95634.69;5010440;28;20224;-67
2022/07/17 08:26:26;;;;;;;0.87;0.60;;;;;;;32.44;nan;95634.75;5036174;28;20985;-69
2022/07/17 08:28:53;;;;;;;0.43;0.43;;;;;;;32.32;nan;95632.28;5029896;28;20665;-63
2022/07/17 08:31:20;;;;;;;0.20;0.20;;;;;;;32.17;nan;95636.03;5041560;28;20220;-68
2022/07/17 08:33:47;;;;;;;0.50;0.50;;;;;;;32.18;nan;95626.75;5040942;28;20200;-66
2022/07/17 08:36:14;;;;;;;0.50;0.50;;;;;;;31.79;nan;95622.88;5036160;28;20198;-65
2022/07/17 08:38:41;;;;;;;0.33;0.33;;;;;;;31.80;nan;95627.16;5031749;28;20192;-66
2022/07/17 08:41:10;;;;;;;0.33;0.33;;;;;;;32.24;nan;95636.09;5029954;28;20203;-67
2022/07/17 08:43:37;;;;;;;4.73;3.97;;;;;;;32.40;nan;95628.47;5018604;28;20202;-64
2022/07/17 08:46:12;;;;;;;0.57;0.57;;;;;;;32.09;nan;95636.34;5011429;28;20196;-68
2022/07/17 08:48:46;;;;;;;5.50;0.97;;;;;;;31.79;nan;95625.59;5038823;28;20204;-66
2022/07/17 08:51:16;;;;;;;0.63;0.63;;;;;;;32.28;nan;95626.03;5031212;28;20196;-69
2022/07/17 08:53:43;;;;;;;1.07;0.63;;;;;;;32.57;nan;95622.41;5019479;28;20232;-66
2022/07/17 08:56:11;;;;;;;1.47;1.27;;;;;;;32.66;nan;95617.41;5016618;28;20547;-67
2022/07/17 08:58:38;;;;;;;0.33;0.33;;;;;;;32.32;nan;95609.78;5040837;28;20258;-66
2022/07/17 09:01:06;;;;;;;2.30;0.73;;;;;;;32.58;nan;95618.53;5028692;28;20798;-68
2022/07/17 09:03:34;;;;;;;0.70;0.70;;;;;;;32.35;nan;95623.41;5040893;28;20196;-65
2022/07/17 09:06:19;;;;;;;2.27;0.90;;;;;;;32.69;nan;95605.03;5019263;28;20199;-67
2022/07/17 09:08:46;;;;;;;0.67;0.63;;;;;;;33.07;nan;95604.47;5024840;28;20205;-66
2022/07/17 09:11:13;;;;;;;0.60;0.60;;;;;;;32.70;nan;95603.91;5039470;28;20656;-63
2022/07/17 09:13:46;;;;;;;1.90;1.00;;;;;;;33.01;nan;95613.38;5028344;28;20745;-65
2022/07/17 09:16:13;;;;;;;0.30;0.30;;;;;;;32.64;nan;95611.63;5016069;28;20206;-64
2022/07/17 09:18:48;;;;;;;10.03;2.63;;;;;;;31.92;nan;95607.94;5047698;28;20920;-71
2022/07/17 09:21:21;;;;;;;0.30;0.30;;;;;;;32.21;nan;95608.97;5047353;28;20368;-65
2022/07/17 09:24:03;;;;;;;0.60;0.60;;;;;;;32.58;nan;95607.69;5039308;28;20259;-66
2022/07/17 09:26:33;;;;;;;0.60;0.60;;;;;;;32.66;nan;95611.22;5042192;28;20279;-70
2022/07/17 09:29:01;;;;;;;0.50;0.50;;;;;;;32.48;nan;95624.66;5028221;28;20292;-61
2022/07/17 09:31:31;;;;;;;0.30;0.30;;;;;;;32.21;nan;95614.38;5040202;28;20733;-64
2022/07/17 09:33:59;;;;;;;0.47;0.47;;;;;;;32.23;nan;95601.97;5007378;28;20242;-66
2022/07/17 09:36:26;;;;;;;0.40;0.40;;;;;;;32.77;nan;95612.81;5009184;28;20212;-61
2022/07/17 09:38:58;;;;;;;0.30;0.30;;;;;;;32.79;nan;95610.50;5035493;28;20202;-69
2022/07/17 09:41:26;;;;;;;2.20;0.97;;;;;;;33.32;nan;95599.16;5011092;28;20587;-67
2022/07/17 09:43:57;;;;;;;0.30;0.30;;;;;;;33.43;nan;95602.69;5025611;28;20232;-61
2022/07/17 09:46:27;;;;;;;0.30;0.30;;;;;;;32.81;nan;95605.50;5025249;28;20208;-67
2022/07/17 09:49:03;;;;;;;1.10;1.00;;;;;;;33.12;nan;95604.09;5011388;28;20198;-63
2022/07/17 09:51:40;;;;;;;0.63;0.63;;;;;;;33.03;nan;95605.63;5020432;28;20209;-63
2022/07/17 09:54:09;;;;;;;4.67;1.93;;;;;;;33.58;nan;95615.16;5025152;28;20193;-67
2022/07/17 09:56:37;;;;;;;0.40;0.40;;;;;;;33.73;nan;95605.88;5020098;28;20631;-63
2022/07/17 09:59:07;;;;;;;1.67;1.20;;;;;;;33.32;nan;95601.88;5034654;28;20212;-64
2022/07/17 10:01:36;;;;;;;0.73;0.73;;;;;;;33.40;nan;95608.88;5014165;28;20197;-63
2022/07/17 10:04:04;;;;;;;0.43;0.43;;;;;;;33.61;nan;95603.53;5013664;28;20182;-64
2022/07/17 10:06:31;;;;;;;3.20;1.87;;;;;;;33.62;nan;95605.84;5008761;28;20197;-62
2022/07/17 10:08:59;;;;;;;4.47;2.00;;;;;;;33.62;nan;95605.06;5013158;28;20206;-61
2022/07/17 10:11:29;;;;;;;0.30;0.30;;;;;;;33.44;nan;95615.09;5012790;28;20696;-64
2022/07/17 10:14:00;;;;;;;1.17;0.80;;;;;;;33.22;nan;95597.16;5015847;28;20201;-65
2022/07/17 10:16:32;;;;;;;3.63;1.23;;;;;;;33.69;nan;95588.78;5023573;28;20671;-64
2022/07/17 10:19:02;;;;;;;0.37;0.37;;;;;;;33.31;nan;95597.56;5020671;28;20191;-63
2022/07/17 10:21:30;;;;;;;0.50;0.50;;;;;;;33.66;nan;95594.97;5020062;28;20222;-69
2022/07/17 10:23:58;;;;;;;0.43;0.43;;;;;;;34.02;nan;95596.59;5020700;28;20661;-64
2022/07/17 10:26:39;;;;;;;0.53;0.50;;;;;;;33.54;nan;95595.38;5020270;28;20232;-69
2022/07/17 10:29:28;;;;;;;0.43;0.43;;;;;;;34.07;nan;95592.72;5020151;28;20221;-67
2022/07/17 10:31:56;;;;;;;0.43;0.43;;;;;;;34.55;nan;95591.94;5019392;28;20217;-65
2022/07/17 10:34:39;;;;;;;0.53;0.40;;;;;;;34.41;nan;95591.94;5026315;28;20569;-66
2022/07/17 10:37:19;;;;;;;0.53;0.53;;;;;;;34.15;nan;95592.34;5023263;28;20201;-64
2022/07/17 10:39:59;;;;;;;2.37;1.77;;;;;;;34.49;nan;95585.31;5019436;28;20249;-66
2022/07/17 10:42:56;;;;;;;0.47;0.47;;;;;;;34.74;nan;95583.31;5018977;28;20208;-65
2022/07/17 10:45:35;;;;;;;0.60;0.33;;;;;;;34.28;nan;95582.63;5011844;28;20692;-66
2022/07/17 10:48:08;;;;;;;0.20;0.20;;;;;;;34.14;nan;95588.03;5010071;28;20201;-65
2022/07/17 10:50:46;;;;;;;0.40;0.40;;;;;;;34.67;nan;95588.78;5014757;28;20228;-67
2022/07/17 10:53:17;;;;;;;0.50;0.50;;;;;;;34.85;nan;95587.97;5018611;28;20209;-63
2022/07/17 10:55:55;;;;;;;1.37;0.67;;;;;;;34.99;nan;95579.78;5023870;28;20196;-65
2022/07/17 10:58:22;;;;;;;1.47;0.90;;;;;;;34.47;nan;95581.47;5018685;28;20216;-64
2022/07/17 11:01:03;;;;;;;0.80;0.80;;;;;;;35.10;nan;95575.06;5018001;28;20221;-67
2022/07/17 11:03:36;;;;;;;0.50;0.50;;;;;;;34.51;nan;95572.09;5019087;28;20717;-68
2022/07/17 11:06:08;;;;;;;0.53;0.53;;;;;;;35.02;nan;95576.28;5016013;28;20243;-67
2022/07/17 11:08:40;;;;;;;1.47;1.37;;;;;;;35.55;nan;95572.13;5013999;28;20198;-64
2022/07/17 11:11:07;;;;;;;0.47;0.43;;;;;;;34.88;nan;95559.94;5022591;28;20282;-67
2022/07/17 11:13:34;;;;;;;0.40;0.40;;;;;;;35.11;nan;95571.19;5017210;28;20205;-68
2022/07/17 11:16:01;;;;;;;0.40;0.40;;;;;;;34.51;nan;95557.72;5018404;28;20229;-66
2022/07/17 11:18:28;;;;;;;0.47;0.47;;;;;;;34.55;nan;95570.16;5023740;28;20205;-63
2022/07/17 11:21:00;;;;;;;0.27;0.27;;;;;;;34.24;nan;95568.22;5018943;28;20591;-65
2022/07/17 11:23:31;;;;;;;0.20;0.20;;;;;;;34.57;nan;95553.44;5024643;28;20197;-64
2022/07/17 11:26:06;;;;;;;0.47;0.47;;;;;;;34.11;nan;95558.13;5027349;28;20283;-65
2022/07/17 11:28:40;;;;;;;0.40;0.40;;;;;;;34.61;nan;95556.91;5021671;28;20200;-66
2022/07/17 11:31:27;;;;;;;0.60;0.60;;;;;;;35.17;nan;95555.94;5019369;28;20939;-68
2022/07/17 11:34:08;;;;;;;0.87;0.87;;;;;;;35.48;nan;95555.03;5023911;28;20193;-68
2022/07/17 11:36:37;;;;;;;0.37;0.37;;;;;;;35.06;nan;95555.22;5021241;28;20198;-69
2022/07/17 11:39:10;;;;;;;0.60;0.60;;;;;;;35.30;nan;95548.88;5021417;28;20208;-70
2022/07/17 11:41:50;;;;;;;0.23;0.23;;;;;;;34.63;nan;95549.13;5016334;28;20216;-66
2022/07/17 11:44:23;;;;;;;0.80;0.80;;;;;;;35.03;nan;95534.22;5019266;28;20185;-68
2022/07/17 11:46:51;;;;;;;0.40;0.40;;;;;;;35.13;nan;95538.88;5021524;28;20233;-68
2022/07/17 11:49:35;;;;;;;0.30;0.30;;;;;;;36.02;nan;95537.94;5016065;28;20259;-72
2022/07/17 11:52:13;;;;;;;0.97;0.57;;;;;;;35.91;nan;95518.16;5023730;28;20283;-67
2022/07/17 11:54:49;;;;;;;0.40;0.40;;;;;;;35.71;nan;95528.00;5023903;28;20239;-67
2022/07/17 11:57:18;;;;;;;0.30;0.30;;;;;;;35.43;nan;95509.91;5017932;28;20232;-70
2022/07/17 11:59:46;;;;;;;1.17;0.80;;;;;;;35.28;nan;95529.41;5010514;28;20192;-68